Time;durP1;ratioP1;P1;durP2;ratioP2;P2;SDS_P1;SDS_P2;PMS_P1;PMS_P2;Temp;Humidity;BMP_temperature;BMP_pressure;BME280_temperature;BME280_humidity;BME280_pressure;Samples;Min_cycle;Max_cycle;Signal;HPM_P1;HPM_P2
2023/09/28 00:01:46;;;;;;;26.33;12.45;;;;;;;16.02;100.00;100804.34;5051651;28;20408;-78
2023/09/28 00:04:29;;;;;;;22.85;13.73;;;;;;;15.85;100.00;100780.47;5034618;28;20097;-79
2023/09/28 00:06:56;;;;;;;20.33;13.00;;;;;;;15.98;100.00;100803.81;5052033;28;20035;-78
2023/09/28 00:09:32;;;;;;;21.70;12.98;;;;;;;15.96;100.00;100797.78;5034247;28;20037;-80
2023/09/28 00:11:58;;;;;;;26.67;14.35;;;;;;;15.82;100.00;100779.38;5052040;28;20032;-83
2023/09/28 00:14:36;;;;;;;22.05;13.45;;;;;;;15.84;100.00;100791.19;5033854;28;20079;-80
2023/09/28 00:17:23;;;;;;;21.88;13.65;;;;;;;15.82;100.00;100796.69;5011490;28;20518;-81
2023/09/28 00:19:48;;;;;;;25.08;13.82;;;;;;;15.65;100.00;100776.44;5053293;28;20041;-81
2023/09/28 00:22:14;;;;;;;23.73;13.95;;;;;;;15.76;100.00;100798.75;5052327;28;20057;-82
2023/09/28 00:24:39;;;;;;;25.48;14.60;;;;;;;15.75;100.00;100807.94;5053835;28;20418;-80
2023/09/28 00:27:06;;;;;;;22.90;13.23;;;;;;;15.71;100.00;100796.66;5053119;28;20122;-80
2023/09/28 00:29:31;;;;;;;27.15;13.65;;;;;;;15.71;100.00;100807.38;5018960;28;20040;-80
2023/09/28 00:31:58;;;;;;;18.00;14.13;;;;;;;15.69;100.00;100802.91;5053577;28;20029;-78
2023/09/28 00:34:24;;;;;;;23.33;13.82;;;;;;;15.67;100.00;100796.09;5054238;28;20029;-80
2023/09/28 00:36:49;;;;;;;20.95;14.05;;;;;;;15.63;100.00;100786.91;5036694;28;20032;-80
2023/09/28 00:39:14;;;;;;;22.08;14.30;;;;;;;15.62;100.00;100797.63;5036231;28;20415;-81
2023/09/28 00:41:40;;;;;;;22.77;14.45;;;;;;;15.57;100.00;100789.72;5053520;28;20048;-79
2023/09/28 00:44:06;;;;;;;21.58;14.00;;;;;;;15.57;100.00;100791.81;5054713;28;20300;-81
2023/09/28 00:46:33;;;;;;;28.00;15.07;;;;;;;15.55;100.00;100794.44;5035753;28;20029;-82
2023/09/28 00:49:05;;;;;;;20.83;13.57;;;;;;;15.52;100.00;100792.56;5035882;28;20047;-82
2023/09/28 00:51:33;;;;;;;;;;;;;;;15.49;100.00;100793.63;5054009;28;20376;-81
2023/09/28 00:54:11;;;;;;;22.05;14.10;;;;;;;15.45;100.00;100788.09;5036518;28;19917;-81
2023/09/28 00:56:45;;;;;;;26.10;14.70;;;;;;;15.38;100.00;100785.69;5057215;28;20020;-80
2023/09/28 00:59:12;;;;;;;22.27;14.70;;;;;;;15.32;100.00;100787.75;5057347;28;20052;-81
2023/09/28 01:01:39;;;;;;;32.08;14.95;;;;;;;15.39;100.00;100795.91;5039614;28;20031;-81
2023/09/28 01:04:05;;;;;;;22.40;14.48;;;;;;;15.34;100.00;100793.78;5057535;28;20036;-83
2023/09/28 01:06:35;;;;;;;24.38;15.18;;;;;;;15.32;100.00;100784.09;5039230;28;20044;-81
2023/09/28 01:09:00;;;;;;;22.63;13.80;;;;;;;15.30;100.00;100784.63;5022780;28;20033;-80
2023/09/28 01:11:28;;;;;;;32.50;15.00;;;;;;;15.30;100.00;100792.47;5056715;28;20539;-79
2023/09/28 01:13:54;;;;;;;25.13;13.90;;;;;;;15.28;100.00;100792.97;5056249;28;20076;-83
2023/09/28 01:16:21;;;;;;;22.80;14.40;;;;;;;15.25;100.00;100794.00;5038725;28;20485;-80
2023/09/28 01:18:47;;;;;;;24.38;14.77;;;;;;;15.20;100.00;100792.66;5039305;28;20081;-80
2023/09/28 01:21:14;;;;;;;25.27;14.25;;;;;;;15.21;100.00;100787.69;5056913;28;20029;-82
2023/09/28 01:23:41;;;;;;;24.20;15.02;;;;;;;15.21;100.00;100796.34;5056699;28;20470;-82
2023/09/28 01:26:08;;;;;;;24.27;14.95;;;;;;;15.15;100.00;100795.50;5056516;28;20025;-82
2023/09/28 01:28:35;;;;;;;25.35;15.68;;;;;;;15.14;100.00;100797.59;5056450;28;20036;-80
2023/09/28 01:31:01;;;;;;;24.13;15.00;;;;;;;15.16;100.00;100808.59;5056297;28;20554;-80
2023/09/28 01:33:27;;;;;;;26.23;16.15;;;;;;;15.10;100.00;100794.16;5056182;28;20056;-79
2023/09/28 01:36:01;;;;;;;23.70;14.80;;;;;;;15.11;100.00;100792.88;5022169;28;20052;-79
2023/09/28 01:38:32;;;;;;;26.80;15.77;;;;;;;15.13;100.00;100792.34;5038644;28;20056;-79
2023/09/28 01:40:58;;;;;;;26.88;15.45;;;;;;;15.11;100.00;100790.00;5022366;28;20033;-79
2023/09/28 01:43:24;;;;;;;22.52;15.15;;;;;;;15.13;100.00;100807.53;5055806;28;20021;-80
2023/09/28 01:45:55;;;;;;;28.92;15.15;;;;;;;15.07;100.00;100792.28;5037303;28;20104;-79
2023/09/28 01:48:42;;;;;;;25.08;15.93;;;;;;;15.11;100.00;100795.75;5054993;28;20053;-80
2023/09/28 01:51:14;;;;;;;25.45;15.55;;;;;;;15.08;100.00;100799.63;5054975;28;20070;-78
2023/09/28 01:53:39;;;;;;;26.48;15.57;;;;;;;15.05;100.00;100797.78;5054103;28;20116;-80
2023/09/28 01:56:07;;;;;;;25.33;15.50;;;;;;;14.99;100.00;100788.31;5054637;28;20370;-79
2023/09/28 01:58:33;;;;;;;22.13;15.48;;;;;;;14.97;100.00;100787.28;5055131;28;20127;-80
2023/09/28 02:00:59;;;;;;;25.00;15.75;;;;;;;14.97;100.00;100790.91;5055535;28;20462;-78
2023/09/28 02:03:25;;;;;;;27.70;15.00;;;;;;;14.92;100.00;100788.81;5056973;28;20052;-80
2023/09/28 02:05:50;;;;;;;20.15;13.40;;;;;;;14.93;100.00;100796.13;5055289;28;20029;-78
2023/09/28 02:08:16;;;;;;;24.77;15.60;;;;;;;14.90;100.00;100787.72;5037227;28;20032;-80
2023/09/28 02:10:42;;;;;;;24.80;16.33;;;;;;;14.89;100.00;100789.03;5054474;28;20061;-82
2023/09/28 02:13:08;;;;;;;25.58;15.65;;;;;;;14.87;100.00;100789.56;5036479;28;20079;-79
2023/09/28 02:15:35;;;;;;;25.80;15.82;;;;;;;14.83;100.00;100783.22;5054146;28;20400;-79
2023/09/28 02:18:01;;;;;;;23.50;15.05;;;;;;;14.81;100.00;100778.00;5054818;28;20037;-79
2023/09/28 02:20:27;;;;;;;29.67;16.55;;;;;;;14.75;100.00;100771.41;5055696;28;20057;-80
2023/09/28 02:22:53;;;;;;;26.60;16.40;;;;;;;14.72;100.00;100774.53;5055306;28;20044;-80
2023/09/28 02:25:22;;;;;;;26.35;16.17;;;;;;;14.72;100.00;100788.91;5055485;28;20355;-79
2023/09/28 02:27:56;;;;;;;24.98;17.63;;;;;;;14.69;100.00;100781.28;5037809;28;20389;-80
2023/09/28 02:30:23;;;;;;;21.23;15.63;;;;;;;14.66;100.00;100785.19;5055335;28;20039;-79
2023/09/28 02:32:55;;;;;;;41.83;16.17;;;;;;;14.65;100.00;100787.28;5020803;28;20358;-79
2023/09/28 02:35:21;;;;;;;28.00;15.70;;;;;;;14.62;100.00;100782.56;5038442;28;20078;-81
2023/09/28 02:37:48;;;;;;;25.88;16.23;;;;;;;14.54;100.00;100784.25;5055005;28;20028;-80
2023/09/28 02:40:15;;;;;;;23.42;16.05;;;;;;;14.58;100.00;100795.53;5020838;28;20037;-80
2023/09/28 02:42:43;;;;;;;26.88;16.05;;;;;;;14.55;100.00;100794.47;5037657;28;20066;-80
2023/09/28 02:45:13;;;;;;;25.98;16.65;;;;;;;14.51;100.00;100781.63;5055474;28;20108;-80
2023/09/28 02:47:43;;;;;;;23.98;16.25;;;;;;;14.50;100.00;100792.34;5021785;28;20029;-80
2023/09/28 02:50:18;;;;;;;28.77;17.27;;;;;;;14.49;100.00;100789.94;5037553;28;20033;-80
2023/09/28 02:52:46;;;;;;;22.65;16.75;;;;;;;14.45;100.00;100795.16;5055485;28;20025;-81
2023/09/28 02:55:13;;;;;;;28.50;17.00;;;;;;;14.40;100.00;100785.97;5054914;28;20029;-81
2023/09/28 02:57:39;;;;;;;27.85;18.20;;;;;;;14.41;100.00;100792.50;5055335;28;20036;-80
2023/09/28 03:00:26;;;;;;;28.95;17.88;;;;;;;14.40;100.00;100796.69;5037227;28;20028;-80
2023/09/28 03:02:56;;;;;;;28.85;18.17;;;;;;;14.33;100.00;100792.16;5055766;28;20021;-80
2023/09/28 03:05:23;;;;;;;29.35;17.55;;;;;;;14.36;100.00;100794.03;5021079;28;20465;-81
2023/09/28 03:07:49;;;;;;;31.85;18.05;;;;;;;14.33;100.00;100802.91;5054951;28;20032;-79
2023/09/28 03:10:16;;;;;;;27.20;18.50;;;;;;;14.32;100.00;100790.59;5037020;28;20033;-80
2023/09/28 03:12:45;;;;;;;27.95;17.00;;;;;;;14.31;100.00;100796.84;5054758;28;20029;-80
2023/09/28 03:15:16;;;;;;;26.55;17.08;;;;;;;14.27;100.00;100797.09;5054558;28;20030;-81
2023/09/28 03:17:41;;;;;;;26.67;17.17;;;;;;;14.24;100.00;100794.41;5036808;28;20111;-80
2023/09/28 03:20:17;;;;;;;29.27;17.67;;;;;;;14.20;100.00;100803.25;5054590;28;20391;-80
2023/09/28 03:22:55;;;;;;;30.63;17.27;;;;;;;14.21;100.00;100793.34;5038222;28;20036;-80
2023/09/28 03:25:22;;;;;;;26.13;18.55;;;;;;;14.15;100.00;100795.38;5020193;28;20462;-81
2023/09/28 03:28:06;;;;;;;25.85;15.90;;;;;;;14.18;100.00;100799.34;5038829;28;20037;-79
2023/09/28 03:30:33;;;;;;;34.60;18.88;;;;;;;14.15;100.00;100800.31;5053849;28;20039;-80
2023/09/28 03:32:59;;;;;;;28.00;18.00;;;;;;;14.09;100.00;100785.88;5054528;28;20029;-81
2023/09/28 03:35:33;;;;;;;24.02;17.30;;;;;;;14.10;100.00;100789.56;5053603;28;20086;-80
2023/09/28 03:38:07;;;;;;;29.33;18.77;;;;;;;14.06;100.00;100789.00;5055141;28;20031;-81
2023/09/28 03:40:33;;;;;;;34.33;18.30;;;;;;;14.01;100.00;100784.75;5054519;28;20029;-80
2023/09/28 03:42:59;;;;;;;27.02;16.92;;;;;;;13.98;100.00;100794.41;5054642;28;20064;-78
2023/09/28 03:45:27;;;;;;;28.30;17.25;;;;;;;13.94;100.00;100786.00;5036762;28;20122;-78
2023/09/28 03:47:53;;;;;;;27.55;18.13;;;;;;;13.92;100.00;100779.19;5054064;28;20064;-79
2023/09/28 03:50:21;;;;;;;26.83;17.50;;;;;;;13.87;100.00;100779.91;5035817;28;20072;-79
2023/09/28 03:52:49;;;;;;;25.63;17.42;;;;;;;13.88;100.00;100781.50;5050437;28;20115;-79
2023/09/28 03:55:17;;;;;;;34.75;19.70;;;;;;;13.85;100.00;100789.03;5054011;28;20025;-80
2023/09/28 03:57:44;;;;;;;30.95;17.67;;;;;;;13.83;100.00;100793.69;5036615;28;20032;-81
2023/09/28 04:00:12;;;;;;;31.75;17.90;;;;;;;13.77;100.00;100787.09;5035997;28;20025;-80
2023/09/28 04:02:38;;;;;;;32.70;18.58;;;;;;;13.74;100.00;100783.13;5019608;28;20049;-80
2023/09/28 04:05:05;;;;;;;31.65;18.80;;;;;;;13.69;100.00;100788.84;5035868;28;20124;-81
2023/09/28 04:07:32;;;;;;;27.25;19.13;;;;;;;13.64;100.00;100790.31;5036355;28;20037;-80
2023/09/28 04:09:57;;;;;;;25.67;18.48;;;;;;;13.61;100.00;100790.53;5053531;28;20047;-79
2023/09/28 04:12:25;;;;;;;35.97;20.20;;;;;;;13.61;100.00;100793.41;5055182;28;20108;-79
2023/09/28 04:14:51;;;;;;;39.28;20.60;;;;;;;13.59;100.00;100785.28;5055013;28;20386;-80
2023/09/28 04:17:19;;;;;;;36.38;20.88;;;;;;;13.61;100.00;100791.31;5035443;28;20563;-81
2023/09/28 04:19:44;;;;;;;36.30;19.65;;;;;;;13.63;100.00;100783.00;5035930;28;20141;-79
2023/09/28 04:22:11;;;;;;;35.03;21.52;;;;;;;13.58;100.00;100777.19;5053813;28;20438;-84
2023/09/28 04:24:38;;;;;;;30.10;19.67;;;;;;;13.57;100.00;100787.09;5035713;28;20485;-80
2023/09/28 04:27:03;;;;;;;37.72;19.67;;;;;;;13.59;100.00;100791.03;5053602;28;20493;-78
2023/09/28 04:29:29;;;;;;;32.25;20.05;;;;;;;13.60;100.00;100797.56;5053408;28;20029;-80
2023/09/28 04:31:57;;;;;;;40.03;21.17;;;;;;;13.58;100.00;100791.56;5053191;28;20458;-80
2023/09/28 04:34:24;;;;;;;34.83;20.55;;;;;;;13.55;100.00;100799.88;5053421;28;20028;-78
2023/09/28 04:37:09;;;;;;;33.25;20.75;;;;;;;13.61;100.00;100804.88;5038173;28;20060;-79
2023/09/28 04:39:36;;;;;;;36.47;20.15;;;;;;;13.62;100.00;100800.72;5053756;28;20025;-78
2023/09/28 04:42:01;;;;;;;34.67;22.02;;;;;;;13.58;100.00;100795.22;5053725;28;20036;-79
2023/09/28 04:44:28;;;;;;;42.30;21.25;;;;;;;13.56;100.00;100794.91;5051417;28;20048;-80
2023/09/28 04:46:54;;;;;;;30.95;19.73;;;;;;;13.61;100.00;100797.06;5032123;28;20041;-77
2023/09/28 04:49:20;;;;;;;35.42;20.98;;;;;;;13.61;100.00;100799.16;5053988;28;20044;-80
2023/09/28 04:51:45;;;;;;;38.30;22.38;;;;;;;13.67;100.00;100800.03;5036341;28;20037;-83
2023/09/28 04:54:13;;;;;;;33.08;20.60;;;;;;;13.66;100.00;100801.31;5035962;28;20033;-80
2023/09/28 04:56:40;;;;;;;35.85;21.52;;;;;;;13.68;100.00;100795.88;5035960;28;20095;-81
2023/09/28 04:59:08;;;;;;;35.03;20.92;;;;;;;13.68;100.00;100795.88;5019319;28;20060;-80
2023/09/28 05:01:51;;;;;;;37.13;21.45;;;;;;;13.68;100.00;100804.47;5053861;28;20025;-79
2023/09/28 05:04:17;;;;;;;38.35;21.23;;;;;;;13.64;100.00;100789.53;5053748;28;20445;-79
2023/09/28 05:06:44;;;;;;;39.03;21.00;;;;;;;13.70;100.00;100804.75;5053504;28;20104;-79
2023/09/28 05:09:13;;;;;;;37.20;20.17;;;;;;;13.65;100.00;100796.84;5053234;28;20453;-77
2023/09/28 05:11:40;;;;;;;33.28;20.05;;;;;;;13.72;100.00;100799.31;5053323;28;20535;-81
2023/09/28 05:14:05;;;;;;;32.50;21.33;;;;;;;13.72;100.00;100805.84;5035624;28;20061;-85
2023/09/28 05:16:32;;;;;;;31.30;21.02;;;;;;;13.69;100.00;100783.84;5034002;28;20084;-82
2023/09/28 05:18:59;;;;;;;33.70;20.98;;;;;;;13.70;100.00;100796.91;5035158;28;20124;-83
2023/09/28 05:21:25;;;;;;;30.92;19.48;;;;;;;13.77;100.00;100796.50;5053470;28;20029;-83
2023/09/28 05:23:51;;;;;;;30.75;20.13;;;;;;;13.73;100.00;100786.53;5049989;28;20076;-85
2023/09/28 05:26:16;;;;;;;36.38;21.13;;;;;;;13.80;100.00;100806.19;5032225;28;20056;-84
2023/09/28 05:28:42;;;;;;;32.33;21.40;;;;;;;13.79;100.00;100796.78;5052228;28;20380;-86
2023/09/28 05:31:07;;;;;;;30.65;20.35;;;;;;;13.78;100.00;100800.16;5053610;28;20103;-85
2023/09/28 05:33:33;;;;;;;32.42;20.50;;;;;;;13.87;100.00;100814.38;5035233;28;20102;-86
2023/09/28 05:35:58;;;;;;;34.55;20.90;;;;;;;13.96;100.00;100817.09;5052293;28;20096;-83
2023/09/28 05:38:23;;;;;;;35.00;21.13;;;;;;;14.00;100.00;100820.53;5035315;28;20028;-86
2023/09/28 05:40:49;;;;;;;38.13;21.42;;;;;;;14.06;100.00;100821.41;5056007;28;20025;-86
2023/09/28 05:43:14;;;;;;;34.63;21.48;;;;;;;14.10;100.00;100815.41;5057569;28;20051;-85
2023/09/28 05:45:40;;;;;;;37.58;21.25;;;;;;;14.20;100.00;100822.59;5039175;28;20108;-85
2023/09/28 05:48:05;;;;;;;32.50;20.90;;;;;;;14.32;100.00;100821.44;5056786;28;20051;-78
2023/09/28 05:50:31;;;;;;;40.50;22.58;;;;;;;14.52;100.00;100826.34;5038682;28;20444;-77
2023/09/28 05:52:56;;;;;;;28.83;19.35;;;;;;;14.88;100.00;100819.09;5056049;28;20529;-78
2023/09/28 05:55:24;;;;;;;33.75;19.27;;;;;;;15.57;100.00;100812.78;5054514;28;20024;-77
2023/09/28 05:57:51;;;;;;;35.03;19.17;;;;;;;16.60;100.00;100813.44;5053836;28;20112;-79
2023/09/28 06:00:17;;;;;;;25.17;16.95;;;;;;;17.58;100.00;100790.81;5053703;28;20029;-77
2023/09/28 06:02:42;;;;;;;30.50;16.42;;;;;;;18.47;100.00;100781.69;5053977;28;20013;-78
2023/09/28 06:05:09;;;;;;;30.83;16.60;;;;;;;19.32;100.00;100788.34;5053865;28;20098;-78
2023/09/28 06:07:35;;;;;;;23.63;16.67;;;;;;;20.19;100.00;100773.31;5054634;28;20424;-78
2023/09/28 06:10:02;;;;;;;29.15;16.75;;;;;;;21.16;100.00;100772.81;5028223;28;20474;-80
2023/09/28 06:12:33;;;;;;;28.40;16.60;;;;;;;21.51;100.00;100783.28;5049189;28;20045;-78
2023/09/28 06:15:00;;;;;;;22.92;16.08;;;;;;;21.79;100.00;100776.09;5054522;28;20031;-80
2023/09/28 06:17:27;;;;;;;20.30;14.98;;;;;;;22.47;100.00;100769.03;5054103;28;20098;-80
2023/09/28 06:19:53;;;;;;;22.48;16.10;;;;;;;23.33;100.00;100762.09;5075885;28;20031;-78
2023/09/28 06:22:18;;;;;;;27.77;14.57;;;;;;;24.18;100.00;100767.09;5054022;28;20021;-80
2023/09/28 06:24:44;;;;;;;21.10;14.60;;;;;;;25.06;100.00;100771.41;5053743;28;20473;-77
2023/09/28 06:27:10;;;;;;;24.85;14.15;;;;;;;25.54;100.00;100759.88;5055325;28;20032;-80
2023/09/28 06:29:37;;;;;;;20.05;14.40;;;;;;;26.03;100.00;100754.28;5055693;28;20032;-78
2023/09/28 06:32:04;;;;;;;17.35;14.05;;;;;;;26.39;100.00;100759.81;5056489;28;20158;-81
2023/09/28 06:34:30;;;;;;;22.48;14.75;;;;;;;26.77;100.00;100763.31;5055225;28;20021;-81
2023/09/28 06:36:56;;;;;;;20.85;14.32;;;;;;;27.17;100.00;100769.06;5055258;28;20025;-80
2023/09/28 06:39:23;;;;;;;23.15;14.20;;;;;;;27.69;100.00;100765.47;5037971;28;20017;-82
2023/09/28 06:41:49;;;;;;;20.15;12.55;;;;;;;28.12;100.00;100767.75;5039074;28;20119;-81
2023/09/28 06:44:16;;;;;;;20.42;12.73;;;;;;;28.39;100.00;100764.84;5055602;28;20048;-80
2023/09/28 06:46:44;;;;;;;16.55;13.35;;;;;;;28.66;100.00;100774.47;5057085;28;20029;-84
2023/09/28 06:49:12;;;;;;;23.98;13.80;;;;;;;28.93;100.00;100771.53;5038934;28;20029;-84
2023/09/28 06:51:37;;;;;;;15.80;12.32;;;;;;;29.12;100.00;100771.63;5054533;28;20055;-80
2023/09/28 06:54:04;;;;;;;19.10;13.60;;;;;;;29.33;100.00;100767.38;5056062;28;20036;-79
2023/09/28 06:56:30;;;;;;;20.63;13.02;;;;;;;29.62;100.00;100777.84;5055089;28;20025;-80
2023/09/28 06:58:57;;;;;;;19.17;13.05;;;;;;;29.76;100.00;100778.19;5055406;28;20481;-81
2023/09/28 07:01:24;;;;;;;23.63;12.65;;;;;;;29.86;100.00;100770.13;5054894;28;20024;-80
2023/09/28 07:03:52;;;;;;;19.42;11.65;;;;;;;29.86;97.68;100770.13;5054343;28;20123;-80
2023/09/28 07:06:21;;;;;;;15.25;11.95;;;;;;;29.86;96.41;100764.22;5054281;28;20500;-80
2023/09/28 07:08:47;;;;;;;20.73;11.45;;;;;;;29.83;96.05;100765.44;5053652;28;20029;-80
2023/09/28 07:11:13;;;;;;;18.23;11.80;;;;;;;29.67;92.09;100778.94;5054681;28;20458;-79
2023/09/28 07:13:40;;;;;;;17.38;10.02;;;;;;;29.63;98.16;100769.75;5050306;28;20040;-78
2023/09/28 07:16:09;;;;;;;16.83;10.45;;;;;;;29.69;97.51;100773.97;5054192;28;20064;-78
2023/09/28 07:18:36;;;;;;;20.50;11.23;;;;;;;29.76;98.16;100775.22;5054102;28;20530;-81
2023/09/28 07:21:03;;;;;;;13.50;9.95;;;;;;;29.86;95.37;100781.91;5053225;28;20094;-79
2023/09/28 07:23:29;;;;;;;17.33;10.57;;;;;;;29.99;95.43;100774.75;5051764;28;20041;-79
2023/09/28 07:25:55;;;;;;;17.30;10.00;;;;;;;30.13;95.10;100778.81;5053726;28;20033;-79
2023/09/28 07:28:26;;;;;;;20.27;10.55;;;;;;;30.16;93.64;100777.59;5036480;28;20442;-78
2023/09/28 07:30:52;;;;;;;17.00;9.73;;;;;;;30.20;93.95;100771.22;5020386;28;20051;-82
2023/09/28 07:33:20;;;;;;;17.67;9.13;;;;;;;30.22;95.51;100777.28;5054361;28;20487;-82
2023/09/28 07:36:05;;;;;;;13.93;9.93;;;;;;;30.26;94.35;100780.53;5039150;28;20025;-83
2023/09/28 07:38:35;;;;;;;15.95;8.60;;;;;;;30.39;94.51;100780.81;5054544;28;20040;-79
2023/09/28 07:41:03;;;;;;;17.55;9.93;;;;;;;30.46;90.48;100773.22;5035407;28;20389;-80
2023/09/28 07:43:30;;;;;;;12.70;9.07;;;;;;;30.45;91.22;100778.34;5056215;28;20039;-85
2023/09/28 07:46:16;;;;;;;12.60;8.52;;;;;;;30.33;90.72;100789.22;5020729;28;20492;-86
2023/09/28 07:48:42;;;;;;;11.55;9.25;;;;;;;30.29;91.47;100777.09;5068110;28;20103;-85
2023/09/28 07:51:07;;;;;;;14.73;8.40;;;;;;;30.31;90.83;100776.50;5053365;28;20059;-89
2023/09/28 07:53:36;;;;;;;15.75;8.45;;;;;;;30.40;89.79;100785.34;5037183;28;20067;-85
2023/09/28 07:56:04;;;;;;;14.85;8.88;;;;;;;30.42;90.75;100778.78;5054870;28;20046;-80
2023/09/28 07:58:30;;;;;;;14.35;8.70;;;;;;;30.40;89.02;100784.56;5069287;28;20029;-88
2023/09/28 08:00:56;;;;;;;18.17;8.10;;;;;;;30.37;92.06;100779.88;5040970;28;20046;-88
2023/09/28 08:03:21;;;;;;;10.90;7.40;;;;;;;30.41;91.03;100786.88;5048523;28;20043;-89
2023/09/28 08:05:47;;;;;;;11.07;8.10;;;;;;;30.52;91.56;100782.50;5024084;28;20029;-89
2023/09/28 08:08:12;;;;;;;12.32;7.60;;;;;;;30.44;91.61;100764.19;5066656;28;20028;-88
2023/09/28 08:10:39;;;;;;;12.15;6.95;;;;;;;30.57;92.45;100778.44;5060017;28;20141;-87
2023/09/28 08:13:06;;;;;;;12.93;7.68;;;;;;;30.52;92.85;100786.22;5068508;28;20093;-87
2023/09/28 08:15:32;;;;;;;15.13;7.18;;;;;;;30.51;92.76;100787.63;5045228;28;20048;-89
2023/09/28 08:17:57;;;;;;;13.50;7.03;;;;;;;30.48;91.65;100780.03;5062311;28;20440;-88
2023/09/28 08:20:26;;;;;;;17.73;7.82;;;;;;;30.33;89.60;100764.84;5056998;28;20029;-91
2023/09/28 08:22:52;;;;;;;16.25;8.25;;;;;;;30.10;91.48;100766.13;5039895;28;20059;-85
2023/09/28 08:25:18;;;;;;;15.93;7.65;;;;;;;30.09;91.22;100788.13;5023613;28;20029;-90
2023/09/28 08:27:43;;;;;;;18.80;8.20;;;;;;;30.00;91.48;100773.38;5041780;28;20032;-86
2023/09/28 08:30:11;;;;;;;11.48;7.07;;;;;;;30.06;92.01;100789.38;5055968;28;20041;-89
2023/09/28 08:32:39;;;;;;;10.23;6.72;;;;;;;29.98;90.60;100790.91;5056796;28;20021;-87
2023/09/28 08:35:05;;;;;;;12.13;6.28;;;;;;;29.87;94.27;100779.75;5021945;28;20120;-87
2023/09/28 08:37:31;;;;;;;11.80;7.30;;;;;;;29.79;94.45;100785.00;5059201;28;20057;-89
2023/09/28 08:39:57;;;;;;;10.70;5.88;;;;;;;29.68;96.16;100777.53;5023285;28;20050;-88
2023/09/28 08:42:26;;;;;;;7.88;6.50;;;;;;;29.75;93.61;100788.41;5055938;28;20041;-88
2023/09/28 08:45:00;;;;;;;18.58;6.97;;;;;;;29.68;92.65;100777.53;5032981;28;20512;-80
2023/09/28 08:47:26;;;;;;;18.50;6.20;;;;;;;29.58;94.13;100789.28;5018975;28;20474;-81
2023/09/28 08:49:53;;;;;;;12.18;6.18;;;;;;;29.43;93.10;100789.53;5036117;28;20040;-84
2023/09/28 08:54:58;;;;;;;13.38;6.25;;;;;;;28.83;93.43;100785.41;5118219;22;20129;-86
2023/09/28 08:57:27;;;;;;;8.70;5.88;;;;;;;28.53;95.23;100768.22;5077268;28;20032;-83
2023/09/28 08:59:53;;;;;;;17.45;6.43;;;;;;;28.25;96.01;100766.59;5077288;28;20109;-82
2023/09/28 09:02:20;;;;;;;17.10;6.43;;;;;;;28.18;97.13;100788.06;5059831;28;20028;-82
2023/09/28 09:04:45;;;;;;;15.07;5.80;;;;;;;28.02;98.35;100785.28;5057183;28;20042;-84
2023/09/28 09:07:11;;;;;;;25.65;5.97;;;;;;;27.80;98.03;100764.97;5093684;28;20023;-82
2023/09/28 09:09:47;;;;;;;14.07;5.65;;;;;;;27.73;100.00;100784.22;5093817;28;20111;-80
2023/09/28 09:12:12;;;;;;;8.13;5.60;;;;;;;27.49;97.46;100771.16;5058934;28;20063;-79
2023/09/28 09:14:39;;;;;;;11.05;5.07;;;;;;;27.35;98.76;100757.41;5081227;28;20024;-91
2023/09/28 09:17:06;;;;;;;12.43;5.00;;;;;;;27.34;98.05;100765.44;5110289;28;20036;-92
2023/09/28 09:19:32;;;;;;;14.02;5.97;;;;;;;27.43;97.49;100773.56;5090671;28;20146;-90
2023/09/28 09:22:00;;;;;;;8.05;4.90;;;;;;;27.45;98.45;100776.69;5081049;28;20048;-87
2023/09/28 09:24:25;;;;;;;12.00;5.10;;;;;;;27.50;97.26;100775.63;5100566;28;20028;-88
2023/09/28 09:26:56;;;;;;;16.40;5.43;;;;;;;27.56;96.83;100770.28;5082553;28;20370;-85
2023/09/28 09:29:23;;;;;;;11.33;5.17;;;;;;;27.57;96.39;100768.13;5081332;28;20044;-87
2023/09/28 09:31:57;;;;;;;10.55;5.28;;;;;;;27.65;97.33;100756.31;5052610;28;20032;-86
2023/09/28 09:34:25;;;;;;;8.50;5.65;;;;;;;27.66;97.10;100749.03;5100051;28;20028;-86
2023/09/28 09:37:12;;;;;;;10.77;4.75;;;;;;;27.71;97.27;100762.69;5066488;28;20040;-86
2023/09/28 09:39:39;;;;;;;11.70;4.78;;;;;;;27.60;96.46;100753.00;5080780;28;20040;-88
2023/09/28 09:42:08;;;;;;;10.65;5.10;;;;;;;27.70;95.55;100761.91;5097919;28;20036;-81
2023/09/28 09:44:34;;;;;;;10.60;5.43;;;;;;;27.71;92.30;100765.63;5098846;28;20028;-84
2023/09/28 09:47:00;;;;;;;11.73;4.95;;;;;;;27.61;90.54;100750.84;5063510;28;20028;-83
2023/09/28 09:49:41;;;;;;;10.00;5.03;;;;;;;27.65;93.07;100754.16;5080117;28;20055;-84
2023/09/28 09:52:18;;;;;;;11.23;5.13;;;;;;;27.65;95.82;100759.25;5080197;28;20031;-83
2023/09/28 09:54:45;;;;;;;17.58;4.85;;;;;;;27.58;90.98;100760.88;5063320;28;20416;-84
2023/09/28 09:57:14;;;;;;;10.27;4.80;;;;;;;27.48;92.52;100763.72;5098232;28;20021;-85
2023/09/28 09:59:46;;;;;;;6.50;4.65;;;;;;;27.45;93.46;100767.88;5098160;28;20107;-83
2023/09/28 10:02:34;;;;;;;19.52;5.40;;;;;;;27.45;92.11;100764.16;5097843;28;20028;-83
2023/09/28 10:05:01;;;;;;;8.05;4.97;;;;;;;27.43;91.76;100761.03;5098680;28;20054;-82
2023/09/28 10:07:32;;;;;;;11.82;4.35;;;;;;;27.46;92.30;100756.88;5081794;28;20358;-80
2023/09/28 10:09:59;;;;;;;14.13;5.25;;;;;;;27.45;92.85;100758.28;5090468;28;20035;-83
2023/09/28 10:12:28;;;;;;;10.45;4.95;;;;;;;27.30;90.25;100762.13;5087690;28;20035;-85
2023/09/28 10:14:56;;;;;;;6.93;4.05;;;;;;;27.23;90.14;100744.56;5104698;28;20051;-79
2023/09/28 10:17:25;;;;;;;6.88;4.60;;;;;;;27.23;91.13;100748.28;5081051;28;20028;-78
2023/09/28 10:19:57;;;;;;;4.95;4.18;;;;;;;27.19;89.17;100754.56;5066725;28;20473;-84
2023/09/28 10:22:23;;;;;;;12.32;4.70;;;;;;;27.11;88.41;100750.13;5100950;28;20028;-86
2023/09/28 10:24:48;;;;;;;11.63;4.25;;;;;;;27.06;89.97;100749.00;5079514;28;20517;-82
2023/09/28 10:27:14;;;;;;;8.82;4.38;;;;;;;27.03;89.99;100753.16;5060909;28;20024;-80
2023/09/28 10:29:40;;;;;;;6.93;4.88;;;;;;;26.98;88.59;100757.09;5096495;28;20046;-81
2023/09/28 10:32:26;;;;;;;12.20;4.75;;;;;;;26.94;88.02;100727.41;5077824;28;20050;-80
2023/09/28 10:35:11;;;;;;;10.13;4.93;;;;;;;27.06;87.64;100746.06;5094692;28;20759;-82
2023/09/28 10:37:37;;;;;;;7.15;4.25;;;;;;;27.01;87.97;100744.16;5094059;28;20052;-85
2023/09/28 10:40:06;;;;;;;10.00;4.78;;;;;;;26.98;88.63;100729.91;5059555;28;20070;-82
2023/09/28 10:42:32;;;;;;;11.20;4.22;;;;;;;26.98;88.99;100735.78;5075656;28;20020;-79
2023/09/28 10:45:00;;;;;;;20.52;6.18;;;;;;;26.89;89.68;100730.56;5092707;28;20032;-81
2023/09/28 10:47:27;;;;;;;13.32;4.63;;;;;;;26.93;90.00;100730.94;5091632;28;20127;-82
2023/09/28 10:50:04;;;;;;;8.63;4.47;;;;;;;26.87;86.44;100728.22;5073825;28;20069;-81
2023/09/28 10:52:30;;;;;;;6.50;4.15;;;;;;;26.77;88.19;100718.53;5095646;28;20020;-83
2023/09/28 10:54:55;;;;;;;10.10;4.85;;;;;;;26.72;89.15;100719.53;5095310;28;20396;-80
2023/09/28 10:57:29;;;;;;;12.95;5.45;;;;;;;26.72;89.46;100732.06;5095753;28;20115;-80
2023/09/28 11:00:01;;;;;;;11.70;4.70;;;;;;;26.71;91.08;100715.06;5098706;28;20030;-80
2023/09/28 11:02:26;;;;;;;14.38;4.88;;;;;;;26.70;90.61;100725.22;5096240;28;20083;-78
2023/09/28 11:04:52;;;;;;;23.02;4.93;;;;;;;26.72;91.34;100726.19;5075954;28;20487;-78
2023/09/28 11:07:17;;;;;;;9.63;4.40;;;;;;;26.67;92.60;100720.53;5096047;28;20016;-78
2023/09/28 11:09:43;;;;;;;9.23;4.60;;;;;;;26.68;93.74;100722.09;5078124;28;20117;-79
2023/09/28 11:12:14;;;;;;;12.82;4.72;;;;;;;26.61;92.50;100717.84;5077888;28;20024;-81
2023/09/28 11:14:42;;;;;;;5.78;4.32;;;;;;;26.55;92.37;100713.59;5078348;28;20028;-79